Time;durP1;ratioP1;P1;durP2;ratioP2;P2;SDS_P1;SDS_P2;PMS_P1;PMS_P2;Temp;Humidity;BMP_temperature;BMP_pressure;BME280_temperature;BME280_humidity;BME280_pressure;Samples;Min_cycle;Max_cycle;Signal;HPM_P1;HPM_P2
2024/01/17 00:00:37;;;;;;;10.70;10.40;;;;;;;-141.02;100.00;38699.50;5093586;28;20626;-65
2024/01/17 00:03:06;;;;;;;11.10;10.80;;;;;;;-141.02;100.00;38695.66;5093278;28;20228;-65
2024/01/17 00:05:33;;;;;;;10.97;10.67;;;;;;;-141.02;100.00;38695.66;5093534;28;20281;-65
2024/01/17 00:08:00;;;;;;;10.33;10.03;;;;;;;-141.02;100.00;38764.69;5092634;28;20190;-65
2024/01/17 00:10:28;;;;;;;10.30;10.00;;;;;;;-141.02;100.00;38833.72;5092999;28;20292;-65
2024/01/17 00:12:55;;;;;;;10.83;10.53;;;;;;;-141.02;100.00;38799.22;5092995;28;20660;-65
2024/01/17 00:15:23;;;;;;;11.27;10.97;;;;;;;-141.02;100.00;38762.78;5093427;28;20613;-65
2024/01/17 00:17:50;;;;;;;10.87;10.57;;;;;;;-141.02;100.00;38757.03;5092851;28;20284;-65
2024/01/17 00:20:17;;;;;;;11.40;11.10;;;;;;;-141.02;100.00;38680.34;5093319;28;20221;-65
2024/01/17 00:22:45;;;;;;;11.93;11.53;;;;;;;-141.02;100.00;38678.41;5093243;28;20222;-65
2024/01/17 00:25:12;;;;;;;12.13;11.73;;;;;;;-141.02;100.00;38659.25;5093136;28;20197;-65
2024/01/17 00:27:41;;;;;;;12.40;12.00;;;;;;;-141.02;100.00;38711.00;5093136;28;20229;-65
2024/01/17 00:30:09;;;;;;;11.33;11.03;;;;;;;-141.02;100.00;38741.69;5093087;28;20236;-65
2024/01/17 00:32:36;;;;;;;10.90;10.60;;;;;;;-141.02;100.00;38902.75;5093052;28;20292;-65
2024/01/17 00:35:03;;;;;;;10.80;10.50;;;;;;;-141.02;100.00;39036.97;5092998;28;20285;-66
2024/01/17 00:37:30;;;;;;;10.73;10.43;;;;;;;-141.02;100.00;39186.56;5092907;28;20227;-65
2024/01/17 00:39:58;;;;;;;9.80;9.50;;;;;;;-141.02;100.00;39347.66;5092897;28;20237;-65
2024/01/17 00:42:26;;;;;;;10.83;10.53;;;;;;;-141.02;100.00;39355.31;5093129;28;20273;-65
2024/01/17 00:44:54;;;;;;;10.30;10.00;;;;;;;-141.02;100.00;39430.09;5092519;28;20259;-65
2024/01/17 00:47:21;;;;;;;9.93;9.63;;;;;;;-141.02;100.00;39339.97;5092782;28;20221;-65
2024/01/17 00:49:48;;;;;;;9.80;9.50;;;;;;;-141.02;100.00;39437.78;5092791;28;20202;-65
2024/01/17 00:52:15;;;;;;;10.20;9.90;;;;;;;-141.02;100.00;39330.38;5092763;28;20198;-65
2024/01/17 00:54:42;;;;;;;9.80;9.50;;;;;;;-141.02;100.00;39249.84;5092901;28;20193;-65
2024/01/17 00:57:09;;;;;;;10.40;10.10;;;;;;;-141.02;100.00;39274.78;5092648;28;20424;-65
2024/01/17 00:59:36;;;;;;;10.13;9.83;;;;;;;-141.02;100.00;39370.66;5092522;28;20315;-65
2024/01/17 01:02:05;;;;;;;10.33;10.03;;;;;;;-141.02;100.00;39478.06;5092292;28;20244;-65
2024/01/17 01:04:32;;;;;;;9.90;9.60;;;;;;;-141.02;100.00;39420.53;5092295;28;20240;-65
2024/01/17 01:06:59;;;;;;;10.30;10.00;;;;;;;-141.02;100.00;39286.28;5092178;28;20714;-65
2024/01/17 01:09:26;;;;;;;10.60;10.30;;;;;;;-141.02;100.00;39196.16;5092194;28;20196;-65
2024/01/17 01:11:53;;;;;;;11.20;10.90;;;;;;;-141.02;100.00;39115.59;5092423;28;20229;-65
2024/01/17 01:14:20;;;;;;;12.20;11.80;;;;;;;-141.02;100.00;39117.53;5092121;28;20194;-65
2024/01/17 01:16:47;;;;;;;11.50;11.20;;;;;;;-141.02;100.00;39060.00;5091999;28;20236;-65
2024/01/17 01:19:16;;;;;;;10.47;10.17;;;;;;;-141.02;100.00;39060.00;5092085;28;20270;-66
2024/01/17 01:21:43;;;;;;;10.37;10.07;;;;;;;-141.02;100.00;39115.59;5098950;28;20190;-65
2024/01/17 01:24:10;;;;;;;10.43;10.13;;;;;;;-141.02;100.00;39086.84;5099025;28;20189;-65
2024/01/17 01:26:37;;;;;;;10.87;10.57;;;;;;;-141.02;100.00;39040.81;5099032;28;20298;-65
2024/01/17 01:29:04;;;;;;;12.67;12.27;;;;;;;-141.02;100.00;39029.31;5099086;28;20197;-65
2024/01/17 01:31:31;;;;;;;12.67;12.27;;;;;;;-141.02;100.00;39002.47;5099059;28;20284;-65
2024/01/17 01:33:58;;;;;;;12.37;11.97;;;;;;;-141.02;100.00;39013.97;5098745;28;20193;-65
2024/01/17 01:36:26;;;;;;;12.57;12.17;;;;;;;-141.02;100.00;39061.91;5098642;28;20240;-65
2024/01/17 01:38:53;;;;;;;12.03;11.63;;;;;;;-141.02;100.00;39129.03;5098558;28;20235;-65
2024/01/17 01:41:20;;;;;;;12.80;12.40;;;;;;;-141.02;100.00;39163.53;5098645;28;20204;-65
2024/01/17 01:43:47;;;;;;;12.67;12.27;;;;;;;-141.02;100.00;39221.06;5098940;28;20276;-65
2024/01/17 01:46:17;;;;;;;11.80;11.40;;;;;;;-141.02;100.00;39221.06;5098571;28;20712;-65
2024/01/17 01:48:45;;;;;;;12.57;12.17;;;;;;;-141.02;100.00;39190.38;5098598;28;20185;-66
2024/01/17 01:51:14;;;;;;;12.17;11.77;;;;;;;-141.02;100.00;39213.41;5098920;28;20634;-65
2024/01/17 01:53:45;;;;;;;12.23;11.83;;;;;;;-141.02;100.00;39205.72;5098759;28;20197;-65
2024/01/17 01:56:14;;;;;;;11.37;10.97;;;;;;;-141.02;100.00;39221.06;5098571;28;20644;-65
2024/01/17 01:58:44;;;;;;;12.23;11.83;;;;;;;-141.02;100.00;39305.44;5098369;28;20278;-65
2024/01/17 02:01:12;;;;;;;13.00;12.50;;;;;;;-141.02;100.00;39253.69;5098750;28;20196;-65
2024/01/17 02:03:43;;;;;;;11.83;11.47;;;;;;;-141.02;100.00;39236.41;5098732;28;20288;-65
2024/01/17 02:06:10;;;;;;;16.10;15.60;;;;;;;-141.02;100.00;39247.91;5098755;28;20371;-65
2024/01/17 02:08:38;;;;;;;13.00;12.60;;;;;;;-141.02;100.00;39236.41;5098367;28;20197;-66
2024/01/17 02:11:07;;;;;;;12.30;11.90;;;;;;;-141.02;100.00;39316.97;5098700;28;20292;-66
2024/01/17 02:13:34;;;;;;;11.73;11.43;;;;;;;-141.02;100.00;39324.63;5098326;28;20593;-66
2024/01/17 02:16:02;;;;;;;11.00;10.70;;;;;;;-141.02;100.00;39374.50;5098188;28;20257;-65
2024/01/17 02:18:29;;;;;;;11.73;11.43;;;;;;;-141.02;100.00;39380.25;5098540;28;20193;-66
2024/01/17 02:20:56;;;;;;;11.50;11.20;;;;;;;-141.02;100.00;39416.69;5098582;28;20247;-66
2024/01/17 02:23:24;;;;;;;12.30;11.90;;;;;;;-141.02;100.00;39347.66;5098245;28;20232;-66
2024/01/17 02:25:54;;;;;;;11.40;11.10;;;;;;;-141.02;100.00;39370.66;5098498;28;20215;-65
2024/01/17 02:28:21;;;;;;;11.40;11.10;;;;;;;-141.02;100.00;39368.75;5098143;28;20197;-65
2024/01/17 02:30:48;;;;;;;11.93;11.53;;;;;;;-141.02;100.00;39380.25;5098030;28;20293;-66
2024/01/17 02:33:15;;;;;;;12.77;12.37;;;;;;;-141.02;100.00;39303.53;5094386;28;20255;-66
2024/01/17 02:35:43;;;;;;;12.30;11.90;;;;;;;-141.02;100.00;39293.94;5094906;28;20198;-66
2024/01/17 02:38:10;;;;;;;13.30;12.90;;;;;;;-141.02;100.00;39363.00;5095234;28;20370;-65
2024/01/17 02:40:37;;;;;;;13.33;12.93;;;;;;;-141.02;100.00;39282.44;5094763;28;20264;-65
2024/01/17 02:43:05;;;;;;;13.07;12.67;;;;;;;-141.02;100.00;39278.59;5094818;28;20196;-65
2024/01/17 02:45:33;;;;;;;13.63;13.23;;;;;;;-141.02;100.00;39209.56;5094683;28;20201;-66
2024/01/17 02:48:00;;;;;;;13.97;13.53;;;;;;;-141.02;100.00;39224.91;5095063;28;20247;-66
2024/01/17 02:50:28;;;;;;;13.70;13.30;;;;;;;-141.02;100.00;39247.91;5094665;28;20288;-66
2024/01/17 02:52:55;;;;;;;13.67;13.27;;;;;;;-141.02;100.00;39190.38;5094610;28;20194;-66
2024/01/17 02:55:23;;;;;;;13.83;13.43;;;;;;;-141.02;100.00;39171.22;5094872;28;20285;-65
2024/01/17 02:57:50;;;;;;;13.53;13.13;;;;;;;-141.02;100.00;39190.38;5094504;28;20584;-65
2024/01/17 03:00:20;;;;;;;14.40;13.90;;;;;;;-141.02;100.00;39155.88;5094730;28;20237;-66
2024/01/17 03:02:47;;;;;;;14.23;13.73;;;;;;;-141.02;100.00;39165.47;5094371;28;20286;-65
2024/01/17 03:05:14;;;;;;;13.93;13.53;;;;;;;-141.02;100.00;39152.03;5094436;28;20200;-65
2024/01/17 03:07:41;;;;;;;13.30;12.90;;;;;;;-141.02;100.00;39113.69;5094303;28;20628;-65
2024/01/17 03:10:11;;;;;;;12.40;12.00;;;;;;;-141.02;100.00;39123.28;5094275;28;20742;-65
2024/01/17 03:12:38;;;;;;;12.63;12.23;;;;;;;-141.02;100.00;39083.00;5094306;28;20186;-65
2024/01/17 03:15:07;;;;;;;13.17;12.77;;;;;;;-141.02;100.00;39113.69;5094164;28;20269;-66
2024/01/17 03:17:36;;;;;;;12.67;12.27;;;;;;;-141.02;100.00;39127.09;5095365;28;20189;-65
2024/01/17 03:20:03;;;;;;;12.23;11.83;;;;;;;-141.02;100.00;39096.44;5093967;28;20264;-65
2024/01/17 03:22:30;;;;;;;11.80;11.50;;;;;;;-141.02;100.00;39092.59;5094361;28;20194;-65
2024/01/17 03:24:57;;;;;;;11.97;11.60;;;;;;;-141.02;100.00;39113.69;5094320;28;20281;-65
2024/01/17 03:27:23;;;;;;;12.17;11.77;;;;;;;-141.02;100.00;39136.69;5093945;28;20198;-66
2024/01/17 03:29:50;;;;;;;12.33;11.93;;;;;;;-141.02;100.00;39148.19;5093976;28;20678;-66
2024/01/17 03:32:17;;;;;;;13.10;12.70;;;;;;;-141.02;100.00;39144.38;5094163;28;20232;-66
2024/01/17 03:34:46;;;;;;;12.53;12.13;;;;;;;-141.02;100.00;39136.69;5093807;28;20229;-65
2024/01/17 03:37:13;;;;;;;11.57;11.27;;;;;;;-141.02;100.00;39136.69;5094022;28;20194;-66
2024/01/17 03:39:43;;;;;;;11.70;11.40;;;;;;;-141.02;100.00;39157.78;5093621;28;20226;-65
2024/01/17 03:42:15;;;;;;;11.20;10.90;;;;;;;-141.02;100.00;39127.09;5093686;28;20221;-65
2024/01/17 03:44:42;;;;;;;12.37;11.97;;;;;;;-141.02;100.00;39152.03;5093518;28;20567;-66
2024/01/17 03:47:09;;;;;;;12.10;11.70;;;;;;;-141.02;100.00;39125.19;5093853;28;20255;-65
2024/01/17 03:49:36;;;;;;;11.50;11.20;;;;;;;-141.02;100.00;39083.00;5093488;28;20718;-65
2024/01/17 03:52:07;;;;;;;11.30;11.00;;;;;;;-141.02;100.00;39054.25;5093792;28;20198;-65
2024/01/17 03:54:36;;;;;;;10.97;10.67;;;;;;;-141.02;100.00;39071.50;5093933;28;20229;-65
2024/01/17 03:57:03;;;;;;;11.53;11.23;;;;;;;-141.02;100.00;39040.81;5093670;28;20201;-65
2024/01/17 03:59:30;;;;;;;10.60;10.30;;;;;;;-141.02;100.00;39090.69;5093275;28;20309;-65
2024/01/17 04:01:57;;;;;;;11.17;10.87;;;;;;;-141.02;100.00;39086.84;5093285;28;20609;-65
2024/01/17 04:04:24;;;;;;;10.67;10.37;;;;;;;-141.02;100.00;39148.19;5093280;28;20200;-65
2024/01/17 04:06:51;;;;;;;10.40;10.10;;;;;;;-141.02;100.00;39140.53;5093172;28;20237;-65
2024/01/17 04:09:20;;;;;;;10.70;10.40;;;;;;;-141.02;100.00;39167.38;5093199;28;20225;-65
2024/01/17 04:11:47;;;;;;;10.70;10.40;;;;;;;-141.02;100.00;39201.91;5093450;28;20301;-66
2024/01/17 04:14:14;;;;;;;10.40;10.10;;;;;;;-141.02;100.00;39196.16;5093384;28;20276;-65
2024/01/17 04:16:41;;;;;;;9.37;9.07;;;;;;;-141.02;100.00;39201.91;5092932;28;20313;-65
2024/01/17 04:19:09;;;;;;;9.07;8.83;;;;;;;-141.02;100.00;39232.59;5093178;28;20236;-65
2024/01/17 04:21:36;;;;;;;8.40;8.20;;;;;;;-141.02;100.00;39311.22;5092946;28;20205;-65
2024/01/17 04:24:03;;;;;;;8.43;8.23;;;;;;;-141.02;100.00;39297.78;5093187;28;20272;-65
2024/01/17 04:26:31;;;;;;;8.30;8.10;;;;;;;-141.02;100.00;39355.31;5092877;28;20660;-65
2024/01/17 04:28:59;;;;;;;8.10;7.90;;;;;;;-141.02;100.00;39363.00;5093114;28;20579;-65
2024/01/17 04:31:26;;;;;;;7.77;7.57;;;;;;;-141.02;100.00;39443.53;5092757;28;20587;-65
2024/01/17 04:33:55;;;;;;;8.53;8.33;;;;;;;-141.02;100.00;39458.88;5092729;28;20652;-65
2024/01/17 04:36:24;;;;;;;8.00;7.80;;;;;;;-141.02;100.00;39623.81;5092948;28;20284;-65
2024/01/17 04:38:51;;;;;;;8.50;8.30;;;;;;;-141.02;100.00;39660.25;5092997;28;20197;-65
2024/01/17 04:41:17;;;;;;;8.80;8.60;;;;;;;-141.02;100.00;39662.16;5092407;28;20609;-65
2024/01/17 04:43:45;;;;;;;9.00;8.80;;;;;;;-141.02;100.00;39453.13;5092868;28;20201;-65
2024/01/17 04:46:14;;;;;;;9.20;8.90;;;;;;;-141.02;100.00;39345.72;5092864;28;20233;-65
2024/01/17 04:48:42;;;;;;;9.40;9.10;;;;;;;-141.02;100.00;39316.97;5092511;28;20232;-65
2024/01/17 04:51:10;;;;;;;10.40;10.10;;;;;;;-141.02;100.00;39173.13;5092473;28;20716;-65
2024/01/17 04:53:41;;;;;;;10.00;9.70;;;;;;;-141.02;100.00;39136.69;5092399;28;20193;-65
2024/01/17 04:56:09;;;;;;;10.43;10.13;;;;;;;-141.02;100.00;39092.59;5091893;28;20193;-65
2024/01/17 04:58:37;;;;;;;10.80;10.50;;;;;;;-141.02;100.00;39092.59;5092273;28;20194;-65
2024/01/17 05:01:05;;;;;;;11.63;11.23;;;;;;;-141.02;100.00;39106.00;5092217;28;20600;-65
2024/01/17 05:03:33;;;;;;;12.07;11.67;;;;;;;-141.02;100.00;39038.91;5092302;28;20198;-65
2024/01/17 05:06:00;;;;;;;16.33;15.73;;;;;;;-141.02;100.00;38969.88;5092331;28;20201;-65
2024/01/17 05:08:27;;;;;;;13.83;13.43;;;;;;;-141.02;100.00;38983.28;5092294;28;20735;-65
2024/01/17 05:10:54;;;;;;;13.77;13.37;;;;;;;-141.02;100.00;38967.94;5092153;28;20295;-65
2024/01/17 05:13:21;;;;;;;13.30;12.90;;;;;;;-141.02;100.00;38956.44;5092513;28;20197;-65
2024/01/17 05:15:49;;;;;;;16.33;15.73;;;;;;;-141.02;100.00;38920.00;5091921;28;20233;-66
2024/01/17 05:18:18;;;;;;;17.00;16.40;;;;;;;-141.02;100.00;38906.59;5092482;28;20636;-65
2024/01/17 05:20:45;;;;;;;16.00;15.50;;;;;;;-141.02;100.00;38906.59;5092307;28;20225;-66
2024/01/17 05:23:12;;;;;;;14.50;14.00;;;;;;;-141.02;100.00;38914.25;5092414;28;20198;-66
2024/01/17 05:25:39;;;;;;;15.00;14.50;;;;;;;-141.02;100.00;38929.59;5092387;28;20222;-65
2024/01/17 05:28:07;;;;;;;15.93;15.43;;;;;;;-141.02;100.00;39006.31;5092292;28;20273;-66
2024/01/17 05:30:34;;;;;;;15.07;14.57;;;;;;;-141.02;100.00;39129.03;5092005;28;20196;-65
2024/01/17 05:33:01;;;;;;;14.43;14.03;;;;;;;-141.02;100.00;39240.25;5092000;28;20251;-65
2024/01/17 05:35:29;;;;;;;12.20;11.80;;;;;;;-141.02;100.00;39270.94;5092251;28;20277;-65
2024/01/17 05:37:56;;;;;;;9.53;9.23;;;;;;;-141.02;100.00;39428.19;5091969;28;20209;-65
2024/01/17 05:40:23;;;;;;;11.70;11.30;;;;;;;-141.02;100.00;39499.16;5092128;28;20226;-66
2024/01/17 05:42:50;;;;;;;12.07;11.67;;;;;;;-141.02;100.00;39554.78;5091931;28;20201;-65
2024/01/17 05:45:17;;;;;;;10.07;9.77;;;;;;;-141.02;100.00;39589.28;5092167;28;20289;-65
2024/01/17 05:47:44;;;;;;;10.77;10.47;;;;;;;-141.02;100.00;39627.66;5091851;28;20236;-65
2024/01/17 05:50:11;;;;;;;11.30;11.00;;;;;;;-141.02;100.00;39715.88;5092122;28;20201;-65
2024/01/17 05:52:41;;;;;;;10.63;10.33;;;;;;;-141.02;100.00;40049.63;5092228;28;20194;-66
2024/01/17 05:55:09;;;;;;;10.03;9.73;;;;;;;-141.02;100.00;40381.47;5091742;28;20633;-65
2024/01/17 05:57:36;;;;;;;10.80;10.50;;;;;;;-141.02;100.00;40651.97;5091741;28;20229;-66
2024/01/17 06:00:04;;;;;;;11.47;11.17;;;;;;;-141.02;100.00;40924.41;5092107;28;20320;-65
2024/01/17 06:02:31;;;;;;;11.60;11.30;;;;;;;-141.02;100.00;40966.63;5091990;28;20194;-65
2024/01/17 06:04:58;;;;;;;11.27;10.97;;;;;;;-141.02;100.00;41592.16;5091987;28;20288;-65
2024/01/17 06:07:25;;;;;;;11.10;10.80;;;;;;;-141.02;100.00;41430.97;5093487;28;20204;-66
2024/01/17 06:09:53;;;;;;;11.90;11.50;;;;;;;-141.02;100.00;41676.59;5095788;28;20194;-66
2024/01/17 06:12:20;;;;;;;11.23;10.93;;;;;;;-141.02;100.00;41469.34;5095498;28;20699;-66
2024/01/17 06:14:49;;;;;;;11.70;11.30;;;;;;;-141.02;100.00;41112.44;5095159;28;20207;-66
2024/01/17 06:17:16;;;;;;;11.67;11.33;;;;;;;-141.02;100.00;41005.00;5095386;28;20284;-66
2024/01/17 06:19:43;;;;;;;11.63;11.23;;;;;;;-141.02;100.00;41285.13;5095588;28;20233;-66
2024/01/17 06:22:10;;;;;;;11.73;11.33;;;;;;;-141.02;100.00;41776.41;5095563;28;20225;-66
2024/01/17 06:24:37;;;;;;;11.70;11.30;;;;;;;-141.02;100.00;41546.13;5095543;28;20202;-66
2024/01/17 06:27:06;;;;;;;11.33;11.03;;;;;;;-141.02;100.00;41548.03;5095109;28;20285;-66
2024/01/17 06:29:34;;;;;;;10.70;10.40;;;;;;;-141.02;100.00;41715.00;5095438;28;20657;-66
2024/01/17 06:32:01;;;;;;;11.00;10.70;;;;;;;-141.02;100.00;41995.19;5095335;28;20202;-66
2024/01/17 06:34:28;;;;;;;10.13;9.83;;;;;;;-141.02;100.00;42167.94;5095000;28;20192;-66
2024/01/17 06:36:55;;;;;;;10.50;10.20;;;;;;;-141.02;100.00;42571.03;5095261;28;20614;-66
2024/01/17 06:39:23;;;;;;;9.60;9.30;;;;;;;-141.02;100.00;43198.78;5095252;28;20281;-66
2024/01/17 06:41:50;;;;;;;8.90;8.70;;;;;;;-141.02;100.00;43300.56;5094817;28;20656;-66
2024/01/17 06:44:19;;;;;;;10.10;9.80;;;;;;;-141.02;100.00;43292.88;5094768;28;20277;-66
2024/01/17 06:46:46;;;;;;;9.40;9.10;;;;;;;-141.02;100.00;42939.59;5094741;28;20237;-66
2024/01/17 06:49:14;;;;;;;10.20;9.90;;;;;;;-141.02;100.00;42384.81;5095055;28;20189;-66
2024/01/17 06:51:41;;;;;;;11.40;11.10;;;;;;;-141.02;100.00;42214.00;5094688;28;20240;-66
2024/01/17 06:54:09;;;;;;;12.50;12.10;;;;;;;-141.02;100.00;42229.34;5094924;28;20281;-66
2024/01/17 06:56:36;;;;;;;12.50;12.10;;;;;;;-141.02;100.00;42452.00;5094538;28;20189;-66
2024/01/17 06:59:04;;;;;;;12.40;12.00;;;;;;;-141.02;100.00;42782.19;5094628;28;20251;-66
2024/01/17 07:01:35;;;;;;;13.80;13.30;;;;;;;-141.02;100.00;42567.19;5094791;28;20317;-67
2024/01/17 07:04:02;;;;;;;14.70;14.20;;;;;;;-141.02;100.00;42828.25;5094811;28;20222;-67
2024/01/17 07:06:29;;;;;;;12.20;11.80;;;;;;;-141.02;100.00;42674.69;5094442;28;20285;-67
2024/01/17 07:08:56;;;;;;;12.33;11.93;;;;;;;-141.02;100.00;42177.53;5094378;28;20664;-67
2024/01/17 07:11:23;;;;;;;14.53;14.03;;;;;;;-141.02;100.00;42167.94;5094679;28;20226;-67
2024/01/17 07:13:50;;;;;;;13.70;13.30;;;;;;;-141.02;100.00;42129.53;5094565;28;20200;-67
2024/01/17 07:16:17;;;;;;;13.60;13.20;;;;;;;-141.02;100.00;41857.00;5094114;28;20222;-67
2024/01/17 07:18:45;;;;;;;14.33;13.83;;;;;;;-141.02;100.00;41791.75;5093716;28;20233;-68
2024/01/17 07:21:14;;;;;;;14.73;14.23;;;;;;;-141.02;100.00;41603.69;5094082;28;20305;-67
2024/01/17 07:23:41;;;;;;;14.67;14.17;;;;;;;-141.02;100.00;41536.53;5094349;28;20265;-68
2024/01/17 07:26:08;;;;;;;16.00;15.40;;;;;;;-141.02;100.00;41446.31;5094317;28;20255;-68
2024/01/17 07:28:35;;;;;;;15.50;14.90;;;;;;;-141.02;100.00;41396.44;5094024;28;20241;-69
2024/01/17 07:31:02;;;;;;;15.10;14.50;;;;;;;-141.02;100.00;41296.66;5093966;28;20236;-69
2024/01/17 07:33:29;;;;;;;14.43;13.93;;;;;;;-141.02;100.00;41024.19;5094273;28;20226;-68
2024/01/17 07:35:58;;;;;;;14.67;14.17;;;;;;;-141.02;100.00;40924.41;5093867;28;20285;-69
2024/01/17 07:38:25;;;;;;;15.53;14.93;;;;;;;-141.02;100.00;41100.94;5094086;28;20308;-68
2024/01/17 07:40:53;;;;;;;15.40;14.80;;;;;;;-141.02;100.00;41208.38;5093755;28;20229;-68
2024/01/17 07:43:20;;;;;;;17.20;16.50;;;;;;;-141.02;100.00;41296.66;5094482;28;20190;-70
2024/01/17 07:45:47;;;;;;;18.00;17.20;;;;;;;-141.02;100.00;41317.75;5093714;28;20236;-70
2024/01/17 07:48:14;;;;;;;16.93;16.23;;;;;;;-141.02;100.00;41127.78;5093653;28;20233;-70
2024/01/17 07:50:41;;;;;;;17.70;16.90;;;;;;;-141.02;100.00;40962.78;5093542;28;20194;-75
2024/01/17 07:53:11;;;;;;;16.07;15.47;;;;;;;-141.02;100.00;41047.22;5093547;28;20198;-70
2024/01/17 07:55:39;;;;;;;14.43;13.93;;;;;;;-141.02;100.00;41120.13;5093737;28;20200;-70
2024/01/17 07:58:07;;;;;;;16.60;15.90;;;;;;;-141.02;100.00;40824.63;5093441;28;20575;-73
2024/01/17 08:00:34;;;;;;;20.37;19.37;;;;;;;-141.02;100.00;40655.81;5093624;28;20198;-72
2024/01/17 08:03:01;;;;;;;20.50;19.50;;;;;;;-141.02;100.00;40671.16;5093645;28;20281;-70
2024/01/17 08:05:28;;;;;;;16.70;16.00;;;;;;;-141.02;100.00;40671.16;5093314;28;20285;-75
2024/01/17 08:07:55;;;;;;;18.47;17.57;;;;;;;-141.02;100.00;40740.22;5093527;28;20194;-74
2024/01/17 08:10:24;;;;;;;18.33;17.47;;;;;;;-141.02;100.00;40736.38;5093511;28;20671;-73
2024/01/17 08:12:51;;;;;;;15.90;15.20;;;;;;;-141.02;100.00;40740.22;5093480;28;20200;-74
2024/01/17 08:15:20;;;;;;;17.40;16.60;;;;;;;-141.02;100.00;40678.84;5092843;28;20265;-75
2024/01/17 08:17:47;;;;;;;19.73;18.83;;;;;;;-141.02;100.00;40732.56;5092971;28;20233;-76
2024/01/17 08:20:16;;;;;;;19.13;18.17;;;;;;;-141.02;100.00;40736.38;5092963;28;20739;-76
2024/01/17 08:22:44;;;;;;;17.07;16.27;;;;;;;-141.02;100.00;40755.56;5092872;28;20321;-76
2024/01/17 08:25:11;;;;;;;16.57;15.77;;;;;;;-141.02;100.00;40828.47;5092858;28;20197;-75
2024/01/17 08:27:40;;;;;;;18.83;17.93;;;;;;;-141.02;100.00;40818.88;5092814;28;20660;-74
2024/01/17 08:30:09;;;;;;;20.03;18.97;;;;;;;-141.02;100.00;40759.41;5091908;28;20779;-73
2024/01/17 08:32:36;;;;;;;17.23;16.43;;;;;;;-141.02;100.00;40805.47;5092729;28;20194;-72
2024/01/17 08:35:03;;;;;;;17.60;16.80;;;;;;;-141.02;100.00;40661.56;5093008;28;20326;-72
2024/01/17 08:37:30;;;;;;;16.70;15.90;;;;;;;-141.02;100.00;40640.47;5092942;28;20204;-72
2024/01/17 08:39:57;;;;;;;17.33;16.53;;;;;;;-141.02;100.00;40638.53;5092634;28;20648;-72
2024/01/17 08:42:24;;;;;;;17.30;16.50;;;;;;;-141.02;100.00;40692.25;5092479;28;20676;-71
2024/01/17 08:44:53;;;;;;;17.93;17.13;;;;;;;-141.02;100.00;40728.72;5092854;28;20237;-71
2024/01/17 08:47:19;;;;;;;17.23;16.43;;;;;;;-141.02;100.00;40732.56;5092454;28;20644;-71
2024/01/17 08:50:01;;;;;;;18.30;17.40;;;;;;;-141.02;100.00;40742.16;5092762;28;20198;-71
2024/01/17 08:52:28;;;;;;;17.03;16.23;;;;;;;-141.02;100.00;40767.09;5092743;28;20199;-71
2024/01/17 08:55:00;;;;;;;17.00;16.20;;;;;;;-141.02;100.00;40753.66;5092703;28;20255;-70
2024/01/17 08:57:37;;;;;;;17.37;16.57;;;;;;;-141.02;100.00;40732.56;5092372;28;20196;-70
2024/01/17 09:00:08;;;;;;;16.03;15.33;;;;;;;-141.02;100.00;40893.72;5092341;28;20427;-69
2024/01/17 09:02:35;;;;;;;17.00;16.20;;;;;;;-141.02;100.00;40782.44;5092220;28;20300;-70
2024/01/17 09:05:02;;;;;;;18.50;17.50;;;;;;;-141.02;100.00;40759.41;5092288;28;20201;-69
2024/01/17 09:07:29;;;;;;;18.20;17.20;;;;;;;-141.02;100.00;40778.59;5093084;28;20190;-68
2024/01/17 09:09:56;;;;;;;18.87;17.67;;;;;;;-141.02;100.00;40805.47;5092513;28;20193;-69
2024/01/17 09:12:23;;;;;;;18.90;17.70;;;;;;;-141.02;100.00;40772.84;5092225;28;20197;-68
2024/01/17 09:14:50;;;;;;;17.97;16.87;;;;;;;-141.02;100.00;40721.03;5092227;28;20197;-70
2024/01/17 09:17:19;;;;;;;18.20;17.10;;;;;;;-141.02;100.00;40686.50;5092426;28;20189;-70
2024/01/17 09:19:46;;;;;;;18.03;16.93;;;;;;;-141.02;100.00;40774.75;5092366;28;20190;-69
2024/01/17 09:22:14;;;;;;;17.90;16.90;;;;;;;-141.02;100.00;40778.59;5092022;28;20683;-69
2024/01/17 09:24:41;;;;;;;20.30;19.10;;;;;;;-141.02;100.00;40840.00;5092063;28;20197;-70
2024/01/17 09:27:08;;;;;;;20.97;19.73;;;;;;;-141.02;100.00;40870.69;5092370;28;20197;-71
2024/01/17 09:29:35;;;;;;;20.97;19.57;;;;;;;-141.02;100.00;40928.25;5092036;28;20660;-70
2024/01/17 09:32:04;;;;;;;20.30;18.90;;;;;;;-141.02;100.00;40962.78;5092318;28;20198;-70
2024/01/17 09:34:34;;;;;;;20.03;18.63;;;;;;;-141.02;100.00;40830.41;5092361;28;20201;-70
2024/01/17 09:37:02;;;;;;;19.53;18.23;;;;;;;-141.02;100.00;40786.28;5092317;28;20198;-70
2024/01/17 09:39:31;;;;;;;18.80;17.53;;;;;;;-141.02;100.00;40809.28;5091933;28;20190;-70
2024/01/17 09:41:59;;;;;;;19.20;18.00;;;;;;;-141.02;100.00;40828.47;5094414;28;20221;-70
2024/01/17 09:44:27;;;;;;;21.17;19.67;;;;;;;-141.02;100.00;40901.38;5095969;28;20675;-71
2024/01/17 09:46:58;;;;;;;21.80;20.20;;;;;;;-141.02;100.00;40997.31;5096309;28;20194;-71
2024/01/17 09:49:26;;;;;;;21.57;19.97;;;;;;;-141.02;100.00;40951.28;5095994;28;20707;-71
2024/01/17 09:51:55;;;;;;;22.80;21.00;;;;;;;-141.02;100.00;40953.19;5095927;28;20190;-71
2024/01/17 09:54:25;;;;;;;26.67;24.77;;;;;;;-141.02;100.00;40910.97;5095806;28;20647;-72
2024/01/17 09:56:56;;;;;;;22.00;20.30;;;;;;;-141.02;100.00;40985.81;5096168;28;20572;-72
2024/01/17 09:59:28;;;;;;;22.30;20.60;;;;;;;-141.02;100.00;40958.94;5095730;28;20280;-72
2024/01/17 10:01:55;;;;;;;21.73;20.03;;;;;;;-141.02;98.98;40891.78;5095619;28;20210;-72
2024/01/17 10:04:24;;;;;;;21.80;20.10;;;;;;;-141.02;100.00;40889.88;5095695;28;20281;-72
2024/01/17 10:06:52;;;;;;;20.30;18.70;;;;;;;-141.02;100.00;40793.94;5095666;28;20229;-72
2024/01/17 10:09:24;;;;;;;20.70;19.10;;;;;;;-141.02;100.00;40686.50;5095529;28;20718;-72
2024/01/17 10:11:51;;;;;;;20.50;18.90;;;;;;;-141.02;100.00;40786.28;5095519;28;20648;-73
2024/01/17 10:14:18;;;;;;;21.50;19.73;;;;;;;-141.02;100.00;40782.44;5095463;28;20672;-73
2024/01/17 10:16:47;;;;;;;22.10;20.30;;;;;;;-141.02;99.97;40857.25;5095316;28;20342;-72
2024/01/17 10:19:15;;;;;;;21.83;20.03;;;;;;;-141.02;100.00;40978.13;5095372;28;20212;-71
2024/01/17 10:21:43;;;;;;;22.97;21.07;;;;;;;-141.02;100.00;40939.75;5095541;28;20226;-71
2024/01/17 10:24:11;;;;;;;22.77;20.97;;;;;;;-141.02;100.00;40970.47;5095564;28;20275;-71
2024/01/17 10:26:42;;;;;;;23.70;21.70;;;;;;;-141.02;96.72;40920.56;5095730;28;20233;-72
2024/01/17 10:29:09;;;;;;;24.57;22.60;;;;;;;-141.02;97.00;40947.44;5095157;28;20226;-72
2024/01/17 10:31:39;;;;;;;24.60;22.60;;;;;;;-141.02;94.79;40972.38;5095436;28;20208;-72
2024/01/17 10:34:06;;;;;;;24.20;22.10;;;;;;;-141.02;95.48;40966.63;5095311;28;20198;-72
2024/01/17 10:36:33;;;;;;;23.57;21.57;;;;;;;-141.02;95.68;40985.81;5095055;28;20194;-72
2024/01/17 10:39:04;;;;;;;23.13;21.13;;;;;;;-141.02;93.13;40978.13;5095252;28;20292;-73
2024/01/17 10:41:32;;;;;;;28.60;26.30;;;;;;;-141.02;94.15;40943.59;5095188;28;20255;-74
2024/01/17 10:44:03;;;;;;;27.60;25.40;;;;;;;-141.02;94.29;40843.81;5095211;28;20200;-74
2024/01/17 10:46:33;;;;;;;28.83;26.53;;;;;;;-141.02;92.52;40799.69;5095239;28;20182;-74
2024/01/17 10:49:00;;;;;;;27.27;25.07;;;;;;;-141.02;95.02;40943.59;5094877;28;20251;-74
2024/01/17 10:51:27;;;;;;;30.40;28.00;;;;;;;-141.02;93.82;40922.50;5095062;28;20202;-69
2024/01/17 10:53:55;;;;;;;29.37;27.07;;;;;;;-141.02;91.16;40887.97;5094139;28;20339;-75
2024/01/17 10:56:23;;;;;;;29.37;26.97;;;;;;;-141.02;91.46;40920.56;5094942;28;20277;-75
2024/01/17 10:58:51;;;;;;;28.00;25.70;;;;;;;-141.02;92.94;40962.78;5094935;28;20189;-76